Time;durP1;ratioP1;P1;durP2;ratioP2;P2;SDS_P1;SDS_P2;PMS_P1;PMS_P2;Temp;Humidity;BMP_temperature;BMP_pressure;BME280_temperature;BME280_humidity;BME280_pressure;Samples;Min_cycle;Max_cycle;Signal;HPM_P1;HPM_P2
2022/04/07 00:01:18;;;;;;;9.77;4.72;;;9.60;99.90;;;;;;5032606;28;20045;-59
2022/04/07 00:03:44;;;;;;;8.63;4.55;;;9.60;99.90;;;;;;5048272;28;20581;-59
2022/04/07 00:06:10;;;;;;;8.57;5.18;;;9.60;99.90;;;;;;5041510;28;20049;-58
2022/04/07 00:08:37;;;;;;;8.90;5.22;;;9.50;99.90;;;;;;5045080;28;20052;-58
2022/04/07 00:11:03;;;;;;;7.50;4.82;;;9.30;99.90;;;;;;5038335;28;20053;-59
2022/04/07 00:13:30;;;;;;;10.93;5.68;;;9.20;99.90;;;;;;5042953;28;20080;-58
2022/04/07 00:15:59;;;;;;;8.98;5.45;;;9.20;99.90;;;;;;5040431;28;20059;-58
2022/04/07 00:18:25;;;;;;;10.10;4.95;;;9.10;99.90;;;;;;5066775;28;20126;-59
2022/04/07 00:20:54;;;;;;;12.13;5.50;;;9.10;99.90;;;;;;5036822;28;20400;-58
2022/04/07 00:23:22;;;;;;;11.38;5.28;;;9.10;99.90;;;;;;5058455;28;20058;-59
2022/04/07 00:25:49;;;;;;;9.38;5.63;;;9.10;99.90;;;;;;5051416;28;20044;-59
2022/04/07 00:28:15;;;;;;;11.88;5.70;;;9.10;99.90;;;;;;5053556;28;20049;-59
2022/04/07 00:30:43;;;;;;;14.32;6.30;;;9.00;99.90;;;;;;5059533;28;21148;-66
2022/04/07 00:33:10;;;;;;;12.65;6.85;;;9.00;99.90;;;;;;5032741;28;20071;-66
2022/04/07 00:35:36;;;;;;;13.05;8.00;;;8.90;99.90;;;;;;5050059;28;20520;-65
2022/04/07 00:38:03;;;;;;;10.68;7.85;;;8.90;99.90;;;;;;5009450;28;20045;-65
2022/04/07 00:40:30;;;;;;;13.90;10.18;;;8.90;99.90;;;;;;5047448;28;20175;-65
2022/04/07 00:42:56;;;;;;;11.82;10.38;;;8.90;99.90;;;;;;5032382;28;20418;-65
2022/04/07 00:45:23;;;;;;;13.18;11.98;;;8.90;99.90;;;;;;5058607;28;20143;-65
2022/04/07 00:47:51;;;;;;;14.80;13.32;;;8.90;99.90;;;;;;5044298;28;20063;-66
2022/04/07 00:50:19;;;;;;;14.50;13.10;;;9.00;99.90;;;;;;5057215;28;20080;-66
2022/04/07 00:52:49;;;;;;;16.00;13.50;;;9.00;99.90;;;;;;5044880;28;20052;-66
2022/04/07 00:55:15;;;;;;;13.38;12.23;;;9.00;99.90;;;;;;5056560;28;20074;-66
2022/04/07 00:57:42;;;;;;;15.40;14.00;;;9.10;99.90;;;;;;5050054;28;20080;-66
2022/04/07 01:00:10;;;;;;;15.02;13.30;;;9.00;99.90;;;;;;5048790;28;20445;-65
2022/04/07 01:02:36;;;;;;;16.33;14.65;;;9.00;99.90;;;;;;5035828;28;20519;-66
2022/04/07 01:05:07;;;;;;;17.33;15.52;;;8.90;99.90;;;;;;5047529;28;20044;-66
2022/04/07 01:07:39;;;;;;;17.38;15.70;;;8.80;99.90;;;;;;5019688;28;20105;-65
2022/04/07 01:10:07;;;;;;;15.57;14.03;;;8.70;99.90;;;;;;5039955;28;20045;-66
2022/04/07 01:12:34;;;;;;;16.17;14.48;;;8.70;99.90;;;;;;5046955;28;20052;-66
2022/04/07 01:15:03;;;;;;;16.65;14.88;;;8.70;99.90;;;;;;5060275;28;20053;-65
2022/04/07 01:17:30;;;;;;;18.45;14.63;;;8.70;99.90;;;;;;5035587;28;20067;-65
2022/04/07 01:19:56;;;;;;;16.20;13.05;;;8.70;99.90;;;;;;5034511;28;20187;-66
2022/04/07 01:22:23;;;;;;;14.48;12.98;;;8.70;99.90;;;;;;5051547;28;20053;-58
2022/04/07 01:24:50;;;;;;;15.07;13.23;;;8.70;99.90;;;;;;5045527;28;20051;-67
2022/04/07 01:27:18;;;;;;;12.23;10.93;;;8.70;99.90;;;;;;5046920;28;20716;-67
2022/04/07 01:29:44;;;;;;;12.73;11.43;;;8.70;99.90;;;;;;5046599;28;20057;-67
2022/04/07 01:32:18;;;;;;;13.35;11.10;;;8.70;99.90;;;;;;5050473;28;20055;-67
2022/04/07 01:34:44;;;;;;;18.27;11.48;;;8.70;99.90;;;;;;5038181;28;20508;-67
2022/04/07 01:37:11;;;;;;;14.13;10.63;;;8.70;99.90;;;;;;5051020;28;20051;-60
2022/04/07 01:39:39;;;;;;;13.40;9.60;;;8.70;99.90;;;;;;5043435;28;20041;-59
2022/04/07 01:42:08;;;;;;;11.63;8.27;;;8.70;99.90;;;;;;5052829;28;20584;-60
2022/04/07 01:44:38;;;;;;;12.00;7.70;;;8.70;99.90;;;;;;5035834;28;20051;-59
2022/04/07 01:47:08;;;;;;;11.35;6.80;;;8.60;99.90;;;;;;5047928;28;20053;-60
2022/04/07 01:49:36;;;;;;;12.05;5.97;;;8.70;99.90;;;;;;5029746;28;20046;-59
2022/04/07 01:52:04;;;;;;;12.15;6.15;;;8.60;99.90;;;;;;5055627;28;20746;-59
2022/04/07 01:54:32;;;;;;;9.77;5.88;;;8.60;99.90;;;;;;5038051;28;20459;-60
2022/04/07 01:56:59;;;;;;;9.63;5.35;;;8.60;99.90;;;;;;5047654;28;20227;-60
2022/04/07 01:59:26;;;;;;;11.82;5.22;;;8.60;99.90;;;;;;5047399;28;20052;-60
2022/04/07 02:01:52;;;;;;;7.80;4.55;;;8.60;99.90;;;;;;5039397;28;20060;-68
2022/04/07 02:04:18;;;;;;;7.72;5.18;;;8.60;99.90;;;;;;5036099;28;20085;-66
2022/04/07 02:06:44;;;;;;;9.70;5.22;;;8.50;99.90;;;;;;5035289;28;20049;-65
2022/04/07 02:09:10;;;;;;;9.63;5.30;;;8.50;99.90;;;;;;5035174;28;20049;-66
2022/04/07 02:11:36;;;;;;;10.77;5.40;;;8.50;99.90;;;;;;5051683;28;20119;-67
2022/04/07 02:14:02;;;;;;;11.82;5.43;;;8.40;99.90;;;;;;5044840;28;20075;-67
2022/04/07 02:16:30;;;;;;;14.13;5.63;;;8.50;99.90;;;;;;5056959;28;20036;-66
2022/04/07 02:18:56;;;;;;;11.32;5.13;;;8.50;99.90;;;;;;5043471;28;20045;-67
2022/04/07 02:21:23;;;;;;;12.07;6.78;;;8.50;99.90;;;;;;5047677;28;20435;-68
2022/04/07 02:23:49;;;;;;;11.77;7.05;;;8.50;99.90;;;;;;5047802;28;20404;-67
2022/04/07 02:26:17;;;;;;;12.82;5.47;;;8.50;99.90;;;;;;5040803;28;20037;-69
2022/04/07 02:28:43;;;;;;;16.65;6.00;;;8.50;99.90;;;;;;5051303;28;20048;-68
2022/04/07 02:31:11;;;;;;;11.55;5.70;;;8.60;99.90;;;;;;5038209;28;20486;-68
2022/04/07 02:33:38;;;;;;;9.02;5.53;;;8.60;99.90;;;;;;5033818;28;20046;-68
2022/04/07 02:36:06;;;;;;;11.00;5.85;;;8.60;99.90;;;;;;5022390;28;20081;-68
2022/04/07 02:38:34;;;;;;;13.60;6.38;;;8.60;99.90;;;;;;5039013;28;20597;-68
2022/04/07 02:41:00;;;;;;;16.00;5.72;;;8.50;99.90;;;;;;5027779;28;20060;-60
2022/04/07 02:43:26;;;;;;;19.00;6.28;;;8.50;99.90;;;;;;5052165;28;20090;-69
2022/04/07 02:45:52;;;;;;;12.32;5.50;;;8.50;99.90;;;;;;5059701;28;20048;-68
2022/04/07 02:48:18;;;;;;;17.45;5.78;;;8.50;99.90;;;;;;5039521;28;20095;-68
2022/04/07 02:50:44;;;;;;;16.08;5.82;;;8.50;99.90;;;;;;5042854;28;20219;-60
2022/04/07 02:53:10;;;;;;;15.15;5.40;;;8.50;99.90;;;;;;5046062;28;20554;-59
2022/04/07 02:55:36;;;;;;;18.55;6.35;;;8.50;99.90;;;;;;5051626;28;20099;-68
2022/04/07 02:58:02;;;;;;;17.60;5.80;;;8.50;99.90;;;;;;5043035;28;20037;-59
2022/04/07 03:00:29;;;;;;;15.93;6.65;;;8.50;99.90;;;;;;4997228;28;20056;-68
2022/04/07 03:02:55;;;;;;;13.13;6.28;;;8.50;99.90;;;;;;5014424;28;20570;-68
2022/04/07 03:05:21;;;;;;;19.05;6.30;;;8.50;99.90;;;;;;5047025;28;20040;-60
2022/04/07 03:07:47;;;;;;;14.48;6.20;;;8.50;99.90;;;;;;5035192;28;20515;-58
2022/04/07 03:10:15;;;;;;;14.95;5.50;;;8.50;99.90;;;;;;5034442;28;20135;-58
2022/04/07 03:12:41;;;;;;;16.33;5.70;;;8.50;99.90;;;;;;5028911;28;20562;-58
2022/04/07 03:15:09;;;;;;;12.50;5.38;;;8.50;99.90;;;;;;5058426;28;20048;-58
2022/04/07 03:17:35;;;;;;;15.05;5.55;;;8.50;99.90;;;;;;5051898;28;20278;-57
2022/04/07 03:20:01;;;;;;;14.55;5.25;;;8.50;99.90;;;;;;5041935;28;20060;-58
2022/04/07 03:22:28;;;;;;;16.48;4.72;;;8.40;99.90;;;;;;5021570;28;20568;-58
2022/04/07 03:24:54;;;;;;;17.33;6.07;;;8.40;99.90;;;;;;5041775;28;20416;-58
2022/04/07 03:27:20;;;;;;;13.93;5.50;;;8.30;99.90;;;;;;5037037;28;20444;-58
2022/04/07 03:29:46;;;;;;;15.60;5.90;;;8.30;99.90;;;;;;5045483;28;20545;-67
2022/04/07 03:32:12;;;;;;;17.40;6.10;;;8.30;99.90;;;;;;5028339;28;20040;-58
2022/04/07 03:34:38;;;;;;;13.90;6.53;;;8.30;99.90;;;;;;5039305;28;20040;-67
2022/04/07 03:37:05;;;;;;;12.57;5.57;;;8.30;99.90;;;;;;5050275;28;20520;-66
2022/04/07 03:39:33;;;;;;;17.20;6.47;;;8.30;99.90;;;;;;5042901;28;20064;-67
2022/04/07 03:41:59;;;;;;;11.60;4.60;;;8.30;99.90;;;;;;5043973;28;20401;-59
2022/04/07 03:44:26;;;;;;;12.45;4.47;;;8.20;99.90;;;;;;5037651;28;20048;-68
2022/04/07 03:46:52;;;;;;;11.98;3.97;;;8.20;99.90;;;;;;5060962;28;20060;-67
2022/04/07 03:49:20;;;;;;;11.82;4.82;;;8.20;99.90;;;;;;5058133;28;20396;-59
2022/04/07 03:51:46;;;;;;;13.70;5.32;;;8.10;99.90;;;;;;5024181;28;20056;-60
2022/04/07 03:54:12;;;;;;;12.68;5.88;;;8.10;99.90;;;;;;5039408;28;20055;-57
2022/04/07 03:56:38;;;;;;;11.32;5.15;;;8.20;99.90;;;;;;5032872;28;20044;-58
2022/04/07 03:59:04;;;;;;;15.38;5.25;;;8.10;99.90;;;;;;5050802;28;20086;-58
2022/04/07 04:01:31;;;;;;;11.32;5.32;;;8.20;99.90;;;;;;5052423;28;20055;-67
2022/04/07 04:03:57;;;;;;;14.23;5.57;;;8.20;99.90;;;;;;5053704;28;20049;-69
2022/04/07 04:06:23;;;;;;;14.35;5.70;;;8.30;99.90;;;;;;5045254;28;20110;-57
2022/04/07 04:08:49;;;;;;;14.07;6.05;;;8.20;99.90;;;;;;5045809;28;20036;-57
2022/04/07 04:11:15;;;;;;;22.00;7.80;;;8.30;99.90;;;;;;5019467;28;20061;-66
2022/04/07 04:13:41;;;;;;;19.90;6.43;;;8.30;99.90;;;;;;5046297;28;20049;-68
2022/04/07 04:16:08;;;;;;;19.65;6.82;;;8.30;99.90;;;;;;5034977;28;20047;-67
2022/04/07 04:18:35;;;;;;;18.92;8.00;;;8.30;99.90;;;;;;5051511;28;20146;-67
2022/04/07 04:21:01;;;;;;;20.90;7.80;;;8.30;99.90;;;;;;5050035;28;20123;-68
2022/04/07 04:23:27;;;;;;;26.10;8.23;;;8.30;99.90;;;;;;5035809;28;20077;-68
2022/04/07 04:25:53;;;;;;;20.42;7.40;;;8.30;99.90;;;;;;5042923;28;20515;-67
2022/04/07 04:28:19;;;;;;;13.52;5.85;;;8.30;99.90;;;;;;5032210;28;20049;-67
2022/04/07 04:30:45;;;;;;;21.83;6.60;;;8.30;99.90;;;;;;5040711;28;20055;-67
2022/04/07 04:33:11;;;;;;;18.63;6.60;;;8.30;99.90;;;;;;5049526;28;20044;-67
2022/04/07 04:35:38;;;;;;;16.17;6.25;;;8.30;99.90;;;;;;5029997;28;20076;-68
2022/04/07 04:38:04;;;;;;;20.85;5.63;;;8.20;99.90;;;;;;5038401;28;20041;-67
2022/04/07 04:40:30;;;;;;;21.30;6.10;;;8.20;99.90;;;;;;5034691;28;20416;-58
2022/04/07 04:42:56;;;;;;;17.17;6.03;;;8.20;99.90;;;;;;5044111;28;20045;-59
2022/04/07 04:45:22;;;;;;;20.42;6.57;;;8.20;99.90;;;;;;5047177;28;20078;-58
2022/04/07 04:47:52;;;;;;;20.52;5.63;;;8.20;99.90;;;;;;5047823;28;20055;-59
2022/04/07 04:50:19;;;;;;;21.85;5.65;;;8.20;99.90;;;;;;5042868;28;20110;-59
2022/04/07 04:52:45;;;;;;;18.70;4.75;;;8.20;99.90;;;;;;5037308;28;20547;-58
2022/04/07 04:55:11;;;;;;;22.50;6.60;;;8.20;99.90;;;;;;5022237;28;20049;-58
2022/04/07 04:57:37;;;;;;;25.35;6.45;;;8.20;99.90;;;;;;5050553;28;20484;-57
2022/04/07 05:00:04;;;;;;;23.90;6.82;;;8.10;99.90;;;;;;5035176;28;20056;-58
2022/04/07 05:02:30;;;;;;;25.55;7.03;;;8.10;99.90;;;;;;5035466;28;20638;-58
2022/04/07 05:04:57;;;;;;;19.67;6.82;;;8.10;99.90;;;;;;5048487;28;20052;-57
2022/04/07 05:07:23;;;;;;;26.52;7.53;;;8.10;99.90;;;;;;5030306;28;20055;-58
2022/04/07 05:09:54;;;;;;;29.25;8.68;;;8.10;99.90;;;;;;5044391;28;20041;-58
2022/04/07 05:12:20;;;;;;;29.48;9.68;;;8.00;99.90;;;;;;5044351;28;20068;-57
2022/04/07 05:14:46;;;;;;;26.58;10.00;;;8.10;99.90;;;;;;5046131;28;20105;-58
2022/04/07 05:17:12;;;;;;;33.42;11.27;;;8.10;99.90;;;;;;5042076;28;20281;-58
2022/04/07 05:19:38;;;;;;;24.67;10.73;;;8.10;99.90;;;;;;5038650;28;20107;-58
2022/04/07 05:22:04;;;;;;;21.83;10.95;;;8.10;99.90;;;;;;5021178;28;20535;-58
2022/04/07 05:24:31;;;;;;;31.45;11.38;;;8.10;99.90;;;;;;5039342;28;20049;-57
2022/04/07 05:26:57;;;;;;;27.83;12.07;;;8.10;99.90;;;;;;5047152;28;20045;-58
2022/04/07 05:29:23;;;;;;;21.83;10.23;;;8.10;99.90;;;;;;5046927;28;20040;-58
2022/04/07 05:31:49;;;;;;;24.30;10.02;;;8.20;99.90;;;;;;5012949;28;20087;-57
2022/04/07 05:34:15;;;;;;;18.88;10.23;;;8.10;99.90;;;;;;5062129;28;20048;-57
2022/04/07 05:36:42;;;;;;;19.45;10.13;;;8.10;99.90;;;;;;5042525;28;20675;-58
2022/04/07 05:39:08;;;;;;;23.80;10.98;;;8.10;99.90;;;;;;5044027;28;20820;-58
2022/04/07 05:41:34;;;;;;;25.60;9.93;;;8.20;99.90;;;;;;5043289;28;20172;-58
2022/04/07 05:44:00;;;;;;;20.92;11.10;;;8.20;99.90;;;;;;5040879;28;20135;-58
2022/04/07 05:46:26;;;;;;;22.95;9.98;;;8.20;99.90;;;;;;5042415;28;20155;-59
2022/04/07 05:48:52;;;;;;;19.50;10.27;;;8.20;99.90;;;;;;5041027;28;20496;-58
2022/04/07 05:51:18;;;;;;;25.48;10.32;;;8.20;99.90;;;;;;5036738;28;20063;-58
2022/04/07 05:53:44;;;;;;;22.70;10.68;;;8.20;99.90;;;;;;5040308;28;20056;-58
2022/04/07 05:56:10;;;;;;;20.50;10.35;;;8.20;99.90;;;;;;5041666;28;20064;-59
2022/04/07 05:58:36;;;;;;;23.25;10.85;;;8.20;99.90;;;;;;5041031;28;20463;-58
2022/04/07 06:01:03;;;;;;;3.20;1.17;;;8.10;99.90;;;;;;5041860;28;20075;-58
2022/04/07 06:03:31;;;;;;;3.55;0.82;;;7.10;99.90;;;;;;5037642;28;20040;-58
2022/04/07 06:05:58;;;;;;;3.60;0.70;;;6.30;99.90;;;;;;5039936;28;20084;-64
2022/04/07 06:08:24;;;;;;;4.45;0.50;;;5.70;99.90;;;;;;5040397;28;20049;-65
2022/04/07 06:10:50;;;;;;;2.15;0.60;;;5.50;99.90;;;;;;5039944;28;20265;-57
2022/04/07 06:13:17;;;;;;;3.60;0.57;;;5.40;99.90;;;;;;5045348;28;20060;-58
2022/04/07 06:15:43;;;;;;;4.28;0.80;;;5.30;99.90;;;;;;5047096;28;20041;-59
2022/04/07 06:18:09;;;;;;;3.85;1.42;;;5.20;99.90;;;;;;5041425;28;20037;-63
2022/04/07 06:20:35;;;;;;;5.03;2.63;;;5.10;99.90;;;;;;5039749;28;20060;-59
2022/04/07 06:23:02;;;;;;;7.65;1.38;;;5.20;99.90;;;;;;5040050;28;20158;-65
2022/04/07 06:25:28;;;;;;;6.88;1.83;;;5.10;99.90;;;;;;5038893;28;20135;-59
2022/04/07 06:27:54;;;;;;;7.03;1.52;;;5.20;99.90;;;;;;5057576;28;20056;-65
2022/04/07 06:30:21;;;;;;;7.97;1.42;;;5.20;99.90;;;;;;5040240;28;20129;-59
2022/04/07 06:32:48;;;;;;;7.43;1.65;;;5.20;99.90;;;;;;5055258;28;20403;-59
2022/04/07 06:35:15;;;;;;;5.88;1.63;;;5.20;99.90;;;;;;5026328;28;20053;-64
2022/04/07 06:37:51;;;;;;;4.18;1.15;;;5.20;99.90;;;;;;5054604;28;20046;-59
2022/04/07 06:40:20;;;;;;;5.75;1.02;;;5.20;99.90;;;;;;5042394;28;20110;-65
2022/04/07 06:42:50;;;;;;;7.70;2.15;;;5.10;99.90;;;;;;5038311;28;20124;-68
2022/04/07 06:45:16;;;;;;;6.93;1.38;;;5.10;99.90;;;;;;5061580;28;20064;-59
2022/04/07 06:47:43;;;;;;;5.88;1.25;;;5.10;99.90;;;;;;5028380;28;20048;-59
2022/04/07 06:50:11;;;;;;;3.30;1.23;;;5.10;99.90;;;;;;5046739;28;20111;-65
2022/04/07 06:52:38;;;;;;;3.65;0.90;;;5.10;99.90;;;;;;5046651;28;20040;-59
2022/04/07 06:55:08;;;;;;;5.32;1.73;;;5.10;99.90;;;;;;5049913;28;20049;-59
2022/04/07 06:57:50;;;;;;;4.63;1.15;;;5.10;99.90;;;;;;5040434;28;20048;-59
2022/04/07 07:00:18;;;;;;;;;;;5.10;99.90;;;;;;5052874;28;20063;-65
2022/04/07 07:02:48;;;;;;;3.63;1.00;;;5.10;99.90;;;;;;5027625;28;19925;-66
2022/04/07 07:05:15;;;;;;;3.05;0.63;;;5.10;99.90;;;;;;5014271;28;20081;-66
2022/04/07 07:07:42;;;;;;;1.80;0.85;;;5.10;99.90;;;;;;5007667;28;20049;-66
2022/04/07 07:10:09;;;;;;;3.38;1.00;;;5.00;99.90;;;;;;5026955;28;20061;-59
2022/04/07 07:12:36;;;;;;;4.63;0.90;;;5.00;99.90;;;;;;5066844;28;20512;-60
2022/04/07 07:15:02;;;;;;;4.78;1.05;;;5.00;99.90;;;;;;5021400;28;20045;-60
2022/04/07 07:17:33;;;;;;;3.97;0.90;;;5.00;99.90;;;;;;5034528;28;20044;-59
2022/04/07 07:20:04;;;;;;;1.50;1.00;;;5.00;99.90;;;;;;5068295;28;20056;-60
2022/04/07 07:22:31;;;;;;;1.93;1.10;;;5.00;99.90;;;;;;5030422;28;20106;-66
2022/04/07 07:24:58;;;;;;;3.38;1.10;;;5.00;99.90;;;;;;5020359;28;20048;-67
2022/04/07 07:27:24;;;;;;;3.35;1.17;;;5.00;99.90;;;;;;5037309;28;20045;-68
2022/04/07 07:29:51;;;;;;;3.95;0.95;;;5.00;99.90;;;;;;5036576;28;20132;-67
2022/04/07 07:32:17;;;;;;;4.30;0.90;;;5.00;99.90;;;;;;5036639;28;20377;-68
2022/04/07 07:34:43;;;;;;;5.93;1.17;;;5.00;99.90;;;;;;5035160;28;20098;-61
2022/04/07 07:37:09;;;;;;;6.93;1.50;;;5.00;99.90;;;;;;5024557;28;20351;-67
2022/04/07 07:39:35;;;;;;;5.43;1.20;;;5.00;99.90;;;;;;5042487;28;20049;-66
2022/04/07 07:42:02;;;;;;;3.00;1.08;;;5.00;99.90;;;;;;5047166;28;20447;-67
2022/04/07 07:44:28;;;;;;;5.05;1.30;;;5.00;99.90;;;;;;5035560;28;20055;-66
2022/04/07 07:46:54;;;;;;;4.15;1.25;;;5.00;99.90;;;;;;5064156;28;20060;-66
2022/04/07 07:49:20;;;;;;;4.63;1.30;;;5.00;99.90;;;;;;5029338;28;20056;-67
2022/04/07 07:51:47;;;;;;;5.03;1.10;;;5.00;99.90;;;;;;5049862;28;20055;-68
2022/04/07 07:54:14;;;;;;;4.47;1.40;;;4.90;99.90;;;;;;5023197;28;20063;-71
2022/04/07 07:56:40;;;;;;;5.43;1.42;;;5.00;99.90;;;;;;5035105;28;20049;-70
2022/04/07 07:59:06;;;;;;;2.78;0.75;;;5.00;99.90;;;;;;5033237;28;20049;-71
2022/04/07 08:01:32;;;;;;;4.00;1.42;;;5.00;99.90;;;;;;5019917;28;20065;-72
2022/04/07 08:03:58;;;;;;;4.65;1.13;;;5.00;99.90;;;;;;5035640;28;20336;-67
2022/04/07 08:06:24;;;;;;;6.28;1.35;;;5.00;99.90;;;;;;5022459;28;20048;-71
2022/04/07 08:08:51;;;;;;;5.35;1.10;;;5.00;99.90;;;;;;5039765;28;20496;-73
2022/04/07 08:11:17;;;;;;;7.10;1.30;;;5.10;99.90;;;;;;5021901;28;20065;-72
2022/04/07 08:13:43;;;;;;;3.08;1.15;;;5.10;99.90;;;;;;5038516;28;20091;-71
2022/04/07 08:16:10;;;;;;;3.08;0.93;;;5.20;99.90;;;;;;5056392;28;20044;-72
2022/04/07 08:18:36;;;;;;;5.30;1.23;;;5.20;99.90;;;;;;5039630;28;20059;-72
2022/04/07 08:21:02;;;;;;;4.85;1.42;;;5.20;99.90;;;;;;5039728;28;20131;-72
2022/04/07 08:23:28;;;;;;;5.63;1.40;;;5.30;99.90;;;;;;5022683;28;20297;-73
2022/04/07 08:25:55;;;;;;;4.28;1.40;;;5.30;99.90;;;;;;5006385;28;20051;-64
2022/04/07 08:28:21;;;;;;;5.32;1.48;;;5.40;99.90;;;;;;5022550;28;20048;-64
2022/04/07 08:30:47;;;;;;;5.53;1.30;;;5.50;99.90;;;;;;5023143;28;20049;-73
2022/04/07 08:33:13;;;;;;;5.50;1.20;;;5.60;99.90;;;;;;5039493;28;20234;-73
2022/04/07 08:35:39;;;;;;;2.95;0.90;;;5.70;99.90;;;;;;5055980;28;20079;-65
2022/04/07 08:38:06;;;;;;;2.00;0.75;;;5.80;99.90;;;;;;5039831;28;20051;-72
2022/04/07 08:40:36;;;;;;;3.70;1.27;;;5.80;99.90;;;;;;5025185;28;20516;-73
2022/04/07 08:43:02;;;;;;;3.95;1.20;;;5.90;99.90;;;;;;5059906;28;20052;-72
2022/04/07 08:45:29;;;;;;;4.35;1.33;;;6.00;99.90;;;;;;5043245;28;20072;-73
2022/04/07 08:47:57;;;;;;;6.10;1.77;;;6.20;99.90;;;;;;5060367;28;20551;-66
2022/04/07 08:50:23;;;;;;;4.78;1.35;;;6.40;99.90;;;;;;5043187;28;20500;-65
2022/04/07 08:52:50;;;;;;;6.72;1.45;;;6.90;99.90;;;;;;5042193;28;20084;-65
2022/04/07 08:55:16;;;;;;;6.32;1.02;;;7.40;99.90;;;;;;5025597;28;20447;-65
2022/04/07 08:57:43;;;;;;;5.32;1.08;;;7.90;99.90;;;;;;4993472;28;20053;-74
2022/04/07 09:00:10;;;;;;;5.18;1.30;;;8.30;99.90;;;;;;5026526;28;20045;-66
2022/04/07 09:02:36;;;;;;;3.20;1.05;;;8.50;99.90;;;;;;5009886;28;20488;-74
2022/04/07 09:05:08;;;;;;;7.25;1.35;;;8.80;99.90;;;;;;5042485;28;20045;-72
2022/04/07 09:07:35;;;;;;;;;;;9.10;99.90;;;;;;5044349;28;20045;-68
2022/04/07 09:10:04;;;;;;;5.40;1.50;;;8.90;99.90;;;;;;5044430;28;20283;-61
2022/04/07 09:12:31;;;;;;;3.78;1.00;;;9.30;99.90;;;;;;5025885;28;20049;-68
2022/04/07 09:14:59;;;;;;;6.13;1.20;;;9.60;99.90;;;;;;5058728;28;20133;-69
2022/04/07 09:17:26;;;;;;;6.03;1.73;;;9.90;99.90;;;;;;5024347;28;20040;-66
2022/04/07 09:19:53;;;;;;;8.05;1.67;;;10.10;99.90;;;;;;5027006;28;20037;-66
2022/04/07 09:22:30;;;;;;;6.05;1.30;;;10.20;99.90;;;;;;5026668;28;20053;-67
2022/04/07 09:25:03;;;;;;;4.45;1.10;;;9.90;99.90;;;;;;4990313;28;20679;-72
2022/04/07 09:27:29;;;;;;;5.55;1.15;;;10.10;99.90;;;;;;5049506;28;20626;-67
2022/04/07 09:29:56;;;;;;;8.15;1.38;;;10.00;99.90;;;;;;5041807;28;20119;-74
2022/04/07 09:32:24;;;;;;;4.75;1.30;;;10.10;99.90;;;;;;5058201;28;20543;-75
2022/04/07 09:34:53;;;;;;;6.70;1.60;;;10.30;99.90;;;;;;5039689;28;20049;-75
2022/04/07 09:37:21;;;;;;;7.15;1.90;;;10.50;99.90;;;;;;5009514;28;20124;-68
2022/04/07 09:40:05;;;;;;;5.70;1.40;;;10.60;99.90;;;;;;5041779;28;20060;-69
2022/04/07 09:42:33;;;;;;;8.63;1.75;;;10.30;99.90;;;;;;5041767;28;20041;-69
2022/04/07 09:45:01;;;;;;;7.93;1.20;;;9.90;99.90;;;;;;5041785;28;20431;-74
2022/04/07 09:47:40;;;;;;;8.20;2.13;;;9.70;99.90;;;;;;5010693;28;20559;-74
2022/04/07 09:50:08;;;;;;;7.78;2.17;;;9.80;99.90;;;;;;5025063;28;20404;-66
2022/04/07 09:52:41;;;;;;;9.70;2.75;;;9.70;99.90;;;;;;5027019;28;20063;-71
2022/04/07 09:55:09;;;;;;;10.45;1.70;;;9.50;99.90;;;;;;5040634;28;20045;-69
2022/04/07 09:57:36;;;;;;;10.63;2.08;;;9.30;99.90;;;;;;5002730;28;20045;-71
2022/04/07 10:00:05;;;;;;;7.35;2.15;;;9.10;99.90;;;;;;5055682;28;20520;-69
2022/04/07 10:02:32;;;;;;;10.73;2.03;;;9.30;99.90;;;;;;5037907;28;20045;-70
2022/04/07 10:05:01;;;;;;;11.20;2.08;;;9.30;99.90;;;;;;5041254;28;20400;-69
2022/04/07 10:07:28;;;;;;;10.55;2.03;;;9.40;99.90;;;;;;5037187;28;20048;-69
2022/04/07 10:09:55;;;;;;;8.23;2.00;;;9.40;99.90;;;;;;5024486;28;20044;-70
2022/04/07 10:12:21;;;;;;;7.55;1.88;;;9.50;99.90;;;;;;5039883;28;20061;-69
2022/04/07 10:14:49;;;;;;;10.80;2.10;;;9.40;99.90;;;;;;5040808;28;20107;-70
2022/04/07 10:17:15;;;;;;;10.48;2.08;;;9.30;99.90;;;;;;5040922;28;20048;-70
2022/04/07 10:19:54;;;;;;;14.05;2.97;;;9.30;99.90;;;;;;4993442;28;20055;-70
2022/04/07 10:22:33;;;;;;;7.85;2.50;;;9.20;99.90;;;;;;5022582;28;20183;-69
2022/04/07 10:25:03;;;;;;;13.00;3.38;;;9.90;99.90;;;;;;5055889;28;20475;-69
2022/04/07 10:27:33;;;;;;;6.78;1.65;;;10.00;99.90;;;;;;5032353;28;20596;-70
2022/04/07 10:30:10;;;;;;;12.98;2.30;;;9.80;99.90;;;;;;5023961;28;20045;-69
2022/04/07 10:32:38;;;;;;;9.82;2.55;;;9.70;99.90;;;;;;5039678;28;20118;-69
2022/04/07 10:35:05;;;;;;;10.20;2.60;;;10.00;99.90;;;;;;5027670;28;20156;-69
2022/04/07 10:37:44;;;;;;;12.65;2.42;;;10.60;99.90;;;;;;5003042;28;20563;-70
2022/04/07 10:40:33;;;;;;;11.70;2.72;;;10.70;99.90;;;;;;5039429;28;20484;-70
2022/04/07 10:43:13;;;;;;;11.85;2.97;;;10.60;99.90;;;;;;5007614;28;20045;-70
2022/04/07 10:45:41;;;;;;;9.45;3.15;;;10.40;99.90;;;;;;5025501;28;20076;-69
2022/04/07 10:48:30;;;;;;;10.52;2.40;;;10.20;99.90;;;;;;5023703;28;20044;-70
2022/04/07 10:50:58;;;;;;;11.48;2.72;;;10.80;99.90;;;;;;5035141;28;20072;-71
2022/04/07 10:53:37;;;;;;;15.38;3.42;;;11.00;99.90;;;;;;5003752;28;20049;-70
2022/04/07 10:56:08;;;;;;;14.10;3.45;;;10.70;99.90;;;;;;5007889;28;20052;-70
2022/04/07 10:58:56;;;;;;;12.68;3.58;;;11.50;99.90;;;;;;5037654;28;20072;-70
2022/04/07 11:01:31;;;;;;;8.73;2.40;;;11.00;99.90;;;;;;5038951;28;20053;-68
2022/04/07 11:04:20;;;;;;;10.68;3.05;;;10.80;99.90;;;;;;5023702;28;20041;-69
2022/04/07 11:07:07;;;;;;;8.52;2.80;;;11.00;99.90;;;;;;5022607;28;20139;-69
2022/04/07 11:09:58;;;;;;;11.57;2.72;;;11.10;99.90;;;;;;5011092;28;20102;-69
2022/04/07 11:12:29;;;;;;;11.65;2.78;;;11.10;99.90;;;;;;5049932;28;20057;-69
2022/04/07 11:15:01;;;;;;;10.98;2.65;;;11.30;99.90;;;;;;5021376;28;20058;-68
2022/04/07 11:17:31;;;;;;;17.63;3.75;;;10.70;99.90;;;;;;5020936;28;20041;-68
2022/04/07 11:20:05;;;;;;;13.43;3.03;;;10.00;99.90;;;;;;5005622;28;20074;-68
2022/04/07 11:22:50;;;;;;;11.73;2.90;;;9.30;99.90;;;;;;5052202;28;20513;-67
2022/04/07 11:25:22;;;;;;;10.82;2.80;;;8.80;99.90;;;;;;5038336;28;20045;-68
2022/04/07 11:28:12;;;;;;;15.63;3.25;;;9.20;99.90;;;;;;5054287;28;20381;-67
2022/04/07 11:30:41;;;;;;;13.40;3.00;;;9.90;99.90;;;;;;5037362;28;20045;-67
2022/04/07 11:33:28;;;;;;;11.80;2.60;;;9.90;99.90;;;;;;5037147;28;20071;-67
2022/04/07 11:36:00;;;;;;;13.82;3.22;;;10.30;99.90;;;;;;5041023;28;20147;-67
2022/04/07 11:38:31;;;;;;;12.77;3.10;;;10.60;99.90;;;;;;5037494;28;20072;-67
2022/04/07 11:41:03;;;;;;;14.35;2.97;;;10.60;99.90;;;;;;5005882;28;20056;-68
2022/04/07 11:43:31;;;;;;;14.10;2.78;;;10.30;99.90;;;;;;5037705;28;20053;-67
2022/04/07 11:45:58;;;;;;;16.70;3.47;;;10.50;99.90;;;;;;4990338;28;20055;-68
2022/04/07 11:48:30;;;;;;;15.70;3.10;;;10.30;99.90;;;;;;5022502;28;20099;-71
2022/04/07 11:51:00;;;;;;;12.05;3.25;;;10.20;99.90;;;;;;5034113;28;20049;-67
2022/04/07 11:53:30;;;;;;;14.25;4.00;;;10.30;99.90;;;;;;5037241;28;20115;-67
2022/04/07 11:56:14;;;;;;;13.98;2.40;;;10.40;99.90;;;;;;5053665;28;20377;-67
2022/04/07 11:58:41;;;;;;;13.98;3.47;;;10.50;99.90;;;;;;5020050;28;20044;-67
2022/04/07 12:01:11;;;;;;;16.00;3.45;;;10.70;99.90;;;;;;5021834;28;20041;-67
2022/04/07 12:03:38;;;;;;;12.90;2.95;;;10.90;99.90;;;;;;5017769;28;20218;-67
2022/04/07 12:06:05;;;;;;;16.52;2.97;;;10.90;99.90;;;;;;5003744;28;20722;-67
2022/04/07 12:08:31;;;;;;;12.80;2.95;;;10.90;99.90;;;;;;5033170;28;20147;-67
2022/04/07 12:10:58;;;;;;;9.70;3.13;;;11.00;99.90;;;;;;5019776;28;20059;-68
2022/04/07 12:13:24;;;;;;;13.27;3.50;;;11.30;99.90;;;;;;5050542;28;20527;-68
2022/04/07 12:15:51;;;;;;;12.88;2.53;;;11.40;99.90;;;;;;5028403;28;20049;-66
2022/04/07 12:18:26;;;;;;;13.27;2.83;;;11.20;99.90;;;;;;5036204;28;20041;-68
2022/04/07 12:21:00;;;;;;;13.68;3.05;;;11.30;99.90;;;;;;5033778;28;20068;-68
2022/04/07 12:23:27;;;;;;;15.10;3.45;;;11.30;99.90;;;;;;5032846;28;20056;-67
2022/04/07 12:25:59;;;;;;;12.57;3.08;;;11.70;99.90;;;;;;5000775;28;20045;-68
2022/04/07 12:28:39;;;;;;;14.30;3.70;;;11.40;99.90;;;;;;5049092;28;20658;-67
2022/04/07 12:31:20;;;;;;;10.52;3.40;;;11.40;99.90;;;;;;5020982;28;20551;-67
2022/04/07 12:33:47;;;;;;;14.15;2.72;;;11.40;99.90;;;;;;5002223;28;20041;-67
2022/04/07 12:36:29;;;;;;;13.80;2.92;;;11.60;99.90;;;;;;5004875;28;20091;-67
2022/04/07 12:39:01;;;;;;;14.70;3.08;;;12.10;99.90;;;;;;5017927;28;20118;-67
2022/04/07 12:41:46;;;;;;;12.50;2.55;;;11.90;99.90;;;;;;5048168;28;20116;-68
2022/04/07 12:44:30;;;;;;;15.57;2.67;;;12.50;99.90;;;;;;5033287;28;20448;-67
2022/04/07 12:46:58;;;;;;;10.80;2.90;;;12.70;99.90;;;;;;5019589;28;20084;-66
2022/04/07 12:49:33;;;;;;;12.40;2.60;;;12.60;99.90;;;;;;5020423;28;20056;-66
2022/04/07 12:52:07;;;;;;;8.63;2.35;;;12.20;99.90;;;;;;5004802;28;20098;-66
2022/04/07 12:54:37;;;;;;;10.48;2.60;;;12.10;99.90;;;;;;5035572;28;20155;-66